Wausau, WI

12:06 AM CDT on July 28, 2014 (GMT -0500)
Hawthorn Hills Elementary School (KWIWAUSA4) Elev 1201 ft | 44.96 °N, 89.61 °W | Change Station

Current weather conditions updated 2 seconds ago

Clear
Clear
53.4 °F
Feels Like 53.4 °F
N
0.0
Wind Variable Wind from NNW
Gusts 0.0 mph

Today is forecast to be Much Cooler than yesterday.

Today
High -- | Low -- °F
--% Chance of Precip.
Yesterday
High -- | Low -- °F
Precip. -- in
5:39 AM 8:29 PM
New Moon, 1% visible
Pressure 30.05 in
Visibility 10.0 miles
Clouds Clear
Dew Point 50 °F
Humidity 90%
Rainfall 0.00 in
Snow Depth Not available.
UV 0 out of 12
Pollen 5.20 out of 12
Air Quality Not available.
Flu Activity Not available.
METAR KAUW 280454Z AUTO 32006KT 10SM CLR 14/11 A3004 RMK AO2 SLP174 T01390106

More Conditions Fewer Conditions

Pressure 30.05 in
Visibility 10.0 miles
Clouds Clear
Dew Point 50 °F
Humidity 90%
Rainfall 0.00 in
Snow Depth Not available.
UV 0 out of 12
Pollen 5.20 out of 12
Air Quality Not available.
Flu Activity Not available.
METAR KAUW 280454Z AUTO 32006KT 10SM CLR 14/11 A3004 RMK AO2 SLP174 T01390106

More Conditions Fewer Conditions

10-Day Weather Forecast

Almanac

Astronomy

Jul. 28, 2014 Rise Set
Actual Time 5:39 AM CDT 8:29 PM CDT
Civil Twilight 5:05 AM CDT 9:04 PM CDT
Nautical Twilight 4:21 AM CDT 9:47 PM CDT
Astronomical Twilight 3:30 AM CDT 10:37 PM CDT
Moon 7:28 AM CDT 9:03 PM CDT
Length of Visible Light 15h 58m
Length of Day
14h 50m
Tomorrow will be 2m 17s shorter.
New Moon, 1% of the Moon is Illuminated
Today
New Moon
Aug 3
First Quarter
Aug 10
Full
Aug 17
Last Quarter
Aug 25
New

Today's Extremes

State Highs State Lows

Community

WunderPhotos

Upload Photos

1,738,310 photos uploaded!

Nearby

Snow Depth

Station Depth Elevation
No new snow has been reported.

Earthquake Activity

City Distance Mag. Time & Date
No recent earthquake activity has been reported nearby.
Minimum magnitude displayed is 2.5.

Coastal Water Temperatures

Place Temperature
No Stations Reporting

Nearby Weather Stations

Station Location Temp. Dew Point Humidity Wind Precip. Elev Updated Type
Hawthorn Hills Elementary School, Wausau, WI 53.4 °F 50 °F 90% NNW  at  0.0 mph 0.00 in / hr 1201 ft 12:06 AM CDT Rapid Fire
6 White Pillars, Wausau, WI 53.4 °F 51 °F 92% WSW  at  1.0 mph 0.00 in / hr 1381 ft 12:04 AM CDT Normal
Knopf's House, Weston, WI 52.5 °F 48 °F 85% North  at  0.0 mph - / hr 1214 ft 11:54 PM CDT Normal
Rib Falls Repair, Athens, WI 53.6 °F 51 °F 92% NW  at  1.0 mph 0.00 in / hr 1348 ft 12:05 AM CDT Normal

Show More Stations Show Fewer Stations